Archival Weather

Václav Havel Intl Apt

Prague, Czechia (LKPR)

Report from: Friday, May 26, 2023 5:00 PM CEST
Current time: Sunday, July 14, 2024 1:00 PM CEST

Current weather – Weather history – Daily summaries
Weather forecast

Temperature19.0°C (66.2°F)
Dew point6.0°C (42.8°F)
Winds 9 kts (4.6 m/s, 10.4 mph) North (360°)
Clouds Sky clear
Altimeter30.24 in.Hg (1024 mB)
Relative humidity43 %
Density altitude246 ft. (75 m)
Remarks Ceiling and visibility OK
No significant changes expected in the next two hours
Flight conditions Visual Meteorological Conditions
Raw dataLKPR 261500Z 36009KT CAVOK 19/06 Q1024 NOSIG
An error has occurred. This application may no longer respond until reloaded. Reload 🗙